KMQY

Smyrna Airport

Smyrna, Tennessee, USA
METAR KMQY 231056Z AUTO 00000KT 9SM OVC003 19/18 A3010 RMK AO2 SLP094 T01890183
Observed Flight Rules
May-23 @ 10:56 UTC (21 minutes ago) Instrument Flight Rules
Visibility Clouds
9 miles
  • Overcast at 300' AGL
Temperatures Readings
Current 19°C / 66°F
Dewpoint 18°C / 64°F
Humidity 94%
Altimeter 30.1" Hg
Pressure 1009.4 hPa
Elevation 166
METAR KMQY 231056Z AUTO 00000KT 9SM OVC003 19/18 A3010 RMK AO2 SLP094 T01890183
Observed Flight Rules
May-23 @ 10:56 UTC
(21 minutes ago)
LIFR
Clouds
  • Overcast at 300' AGL
Temperature Dewpoint
19°C / 66°F 18°C / 64°F
Humidity Altimeter Pressure
94% 30.1" Hg 1009.4 hPa